<?xml version='1.0' encoding='UTF-8'?>
<gpx xmlns="http://www.topografix.com/GPX/1/1" creator="www.balnam.be" version="1.1" xmlns:xsi="http://www.w3.org/2001/XMLSchema-instance" xsi:schemaLocation="http://www.topografix.com/GPX/1/1 http://www.topografix.com/GPX/1/1/gpx.xsd">
<trk>
<name>nvsbh13</name>
<cmt>v</cmt>
<desc>Bohan Chemin n°13 Rue Bois Jean</desc>
<link href="https://chemins.be/bohan/chemin/13"/><trkseg>
<trkpt lat="49.861914" lon="4.884646"><time>2026-05-03T01:19:57Z</time></trkpt>
<trkpt lat="49.861746" lon="4.884018"><time>2026-05-03T01:29:57Z</time></trkpt>
<trkpt lat="49.861517" lon="4.883056"><time>2026-05-03T01:39:57Z</time></trkpt>
<trkpt lat="49.860922" lon="4.881422"><time>2026-05-03T01:49:57Z</time></trkpt>
<trkpt lat="49.860788" lon="4.881087"><time>2026-05-03T01:59:57Z</time></trkpt>
<trkpt lat="49.860323" lon="4.878551"><time>2026-05-03T02:09:57Z</time></trkpt>
<trkpt lat="49.859455" lon="4.875691"><time>2026-05-03T02:19:57Z</time></trkpt>
<trkpt lat="49.859603" lon="4.874552"><time>2026-05-03T02:29:57Z</time></trkpt>
<trkpt lat="49.859227" lon="4.872142"><time>2026-05-03T02:39:57Z</time></trkpt>
<trkpt lat="49.859075" lon="4.869887"><time>2026-05-03T02:49:57Z</time></trkpt>
<trkpt lat="49.858960" lon="4.869455"><time>2026-05-03T02:59:57Z</time></trkpt>
<trkpt lat="49.858385" lon="4.867404"><time>2026-05-03T03:09:57Z</time></trkpt>
<trkpt lat="49.857693" lon="4.865367"><time>2026-05-03T03:19:57Z</time></trkpt>
</trkseg></trk>
<trk>
<name>nvsbh13</name>
<cmt>q</cmt>
<desc>Bohan Chemin n°13 Rue Bois Jean</desc>
<link href="https://chemins.be/bohan/chemin/13"/><trkseg>
<trkpt lat="49.857693" lon="4.865367"><time>2026-05-03T03:19:57Z</time></trkpt>
<trkpt lat="49.857396" lon="4.863596"><time>2026-05-03T03:29:57Z</time></trkpt>
<trkpt lat="49.855984" lon="4.860957"><time>2026-05-03T03:39:57Z</time></trkpt>
<trkpt lat="49.857243" lon="4.853232"><time>2026-05-03T03:49:57Z</time></trkpt>
<trkpt lat="49.859733" lon="4.852889"><time>2026-05-03T03:59:57Z</time></trkpt>
</trkseg></trk>
<trk>
<name>nvsbh13</name>
<cmt>v</cmt>
<desc>Bohan Chemin n°13 Rue Bois Jean</desc>
<link href="https://chemins.be/bohan/chemin/13"/><trkseg>
<trkpt lat="49.859733" lon="4.852889"><time>2026-05-03T03:59:57Z</time></trkpt>
<trkpt lat="49.860960" lon="4.852458"><time>2026-05-03T04:09:57Z</time></trkpt>
<trkpt lat="49.864077" lon="4.851521"><time>2026-05-03T04:19:57Z</time></trkpt>
<trkpt lat="49.864607" lon="4.850998"><time>2026-05-03T04:29:57Z</time></trkpt>
<trkpt lat="49.865663" lon="4.850866"><time>2026-05-03T04:39:57Z</time></trkpt>
<trkpt lat="49.866134" lon="4.850190"><time>2026-05-03T04:49:57Z</time></trkpt>
<trkpt lat="49.866794" lon="4.849048"><time>2026-05-03T04:59:57Z</time></trkpt>
<trkpt lat="49.867008" lon="4.848259"><time>2026-05-03T05:09:57Z</time></trkpt>
</trkseg>
</trk>
</gpx>